»·PEaware :: N55VW KSAN-KTSP

N55VW :: KSAN-KTSP

FLIGHT INFORMATION

Flight Status: Arrived
Operator: Privately registered:
United States
More flights under this callsign
Pilot: Patricio R. (14780)
Aircraft: Unknown
(EPIC)
More flights by this aircraft type
Origin: KSAN San Diego Intl-Lindbergh
United States
Destination: KTSP Tehachapi Mun
United States
More flights between these airports :: More routes between these airports
Route: +OCN V23 SLI V459 BERRI V201 PMD
File this flight plan on PilotEdge
Remarks:
Altitude:
(Current/Filed)
16,000ft
Speed:
(Current/Filed)
300kts
Departed: 10-Jan-18 05:13 PM
Arrived: 10-Jan-18 05:55 PM
Distance/Time
Traveled:
157nm/0:41
Distance/Time
To Go:
Arrived

Flight Plot

Page will automatically refresh every two minutes.


Map Options




Map Legend


Flown Route
Filed Route
Departure Airport
Arrival Airport
Navaid (VOR, NDB)
Fix

Horizontal Profiles

Position Reports

Time Latitude Longitude Heading Altitude Ground
Speed
10-Jan-18 17:11 32.732092 -117.176568 194 27ft 0kts
10-Jan-18 17:12 32.732092 -117.176568 194 27ft 0kts
10-Jan-18 17:13 32.732092 -117.176568 194 27ft 0kts
10-Jan-18 17:14 32.732092 -117.176568 194 27ft 0kts
10-Jan-18 17:15 32.732092 -117.176568 194 27ft 0kts
10-Jan-18 17:16 32.732092 -117.176568 194 27ft 0kts
10-Jan-18 17:17 32.732092 -117.176568 194 27ft 0kts
10-Jan-18 17:18 32.730983 -117.175581 135 26ft 0kts
10-Jan-18 17:19 32.732848 -117.186642 283 259ft 144kts
10-Jan-18 17:20 32.766899 -117.225830 321 1987ft 191kts
10-Jan-18 17:21 32.810381 -117.263594 321 3639ft 195kts
10-Jan-18 17:22 32.851919 -117.296593 321 6563ft 168kts
10-Jan-18 17:23 32.887365 -117.324677 321 9400ft 148kts
10-Jan-18 17:24 32.922275 -117.346012 350 11716ft 148kts
10-Jan-18 17:25 32.961966 -117.354259 345 13650ft 149kts
10-Jan-18 17:26 33.004184 -117.364042 346 14985ft 178kts
10-Jan-18 17:27 33.059672 -117.376673 347 14984ft 220kts
10-Jan-18 17:28 33.116824 -117.389626 347 14994ft 232kts
10-Jan-18 17:29 33.178463 -117.403607 347 14991ft 236kts
10-Jan-18 17:30 33.240993 -117.423595 323 14996ft 237kts
10-Jan-18 17:31 33.288373 -117.478035 300 15095ft 245kts
10-Jan-18 17:32 33.302549 -117.555048 291 15981ft 233kts
10-Jan-18 17:33 33.316684 -117.633915 292 16002ft 257kts
10-Jan-18 17:34 33.333067 -117.719507 291 16001ft 272kts
10-Jan-18 17:35 33.350360 -117.807820 291 15996ft 276kts
10-Jan-18 17:36 33.367999 -117.897213 291 15992ft 277kts
10-Jan-18 17:37 33.390794 -117.982621 322 15978ft 258kts
10-Jan-18 17:38 33.751885 -118.049839 348 15984ft 256kts
10-Jan-18 17:39 33.814397 -118.073552 336 15974ft 255kts
10-Jan-18 17:40 33.874315 -118.107224 335 15970ft 255kts
10-Jan-18 17:41 33.937911 -118.143670 335 15968ft 255kts
10-Jan-18 17:42 34.001641 -118.180377 335 15980ft 254kts
10-Jan-18 17:43 34.065091 -118.217006 335 15982ft 254kts
10-Jan-18 17:44 34.127653 -118.253183 335 15991ft 255kts
10-Jan-18 17:45 34.192503 -118.285865 359 15974ft 260kts
10-Jan-18 17:46 34.262419 -118.257748 15 15990ft 268kts
10-Jan-18 17:47 34.331188 -118.222742 16 15821ft 274kts
10-Jan-18 17:48 34.402297 -118.185364 16 15231ft 282kts
10-Jan-18 17:49 34.474358 -118.147236 17 14636ft 285kts
10-Jan-18 17:50 34.546805 -118.108812 17 14043ft 286kts
10-Jan-18 17:51 34.618275 -118.073496 359 13991ft 267kts
10-Jan-18 17:52 34.686700 -118.107472 332 13316ft 278kts
10-Jan-18 17:53 34.751815 -118.153530 331 12567ft 275kts
10-Jan-18 17:54 34.813667 -118.199153 330 11330ft 242kts
10-Jan-18 17:55 34.868752 -118.240102 329 10082ft 229kts
10-Jan-18 17:56 34.923498 -118.280950 328 8931ft 236kts
10-Jan-18 17:57 34.979704 -118.322990 328 8954ft 241kts
10-Jan-18 17:58 35.035177 -118.364505 328 9060ft 219kts
10-Jan-18 17:59 35.086997 -118.398068 329 7277ft 214kts
10-Jan-18 18:00 35.129055 -118.428335 301 4196ft 137kts
10-Jan-18 18:01 35.135011 -118.440623 140 3980ft 15kts

Navigation Log

Ident Type
Flight plan parsing failed, navigation log unavailable